Time;durP1;ratioP1;P1;durP2;ratioP2;P2;SDS_P1;SDS_P2;PMS_P1;PMS_P2;Temp;Humidity;BMP_temperature;BMP_pressure;BME280_temperature;BME280_humidity;BME280_pressure;Samples;Min_cycle;Max_cycle;Signal;HPM_P1;HPM_P2
2022/05/05 00:00:06;;;;;;;66.15;53.08;;;19.30;54.70;;;;;;4927994;28;98062;-73
2022/05/05 00:02:32;;;;;;;66.35;52.55;;;19.30;54.70;;;;;;4921635;28;95077;-73
2022/05/05 00:04:57;;;;;;;66.50;52.70;;;19.30;54.70;;;;;;4928866;28;98076;-73
2022/05/05 00:07:23;;;;;;;67.93;53.30;;;19.20;54.70;;;;;;4919815;28;97953;-73
2022/05/05 00:09:49;;;;;;;67.55;53.05;;;19.20;54.70;;;;;;4922192;28;96386;-73
2022/05/05 00:14:59;;;;;;;66.70;52.58;;;19.20;54.70;;;;;;4929298;28;95367;-73
2022/05/05 00:17:25;;;;;;;66.00;52.72;;;19.20;54.90;;;;;;4928772;28;95066;-73
2022/05/05 00:19:51;;;;;;;64.82;52.55;;;19.20;54.70;;;;;;4929270;28;96228;-73
2022/05/05 00:22:17;;;;;;;66.53;52.88;;;19.20;54.70;;;;;;4928953;28;95194;-73
2022/05/05 00:24:42;;;;;;;66.68;53.03;;;19.20;54.80;;;;;;4936011;28;98103;-73
2022/05/05 00:27:08;;;;;;;66.07;52.90;;;19.20;54.80;;;;;;4923354;28;101135;-73
2022/05/05 00:29:34;;;;;;;66.13;52.60;;;19.20;54.80;;;;;;4923424;28;96331;-73
2022/05/05 00:32:00;;;;;;;65.38;52.72;;;19.20;54.80;;;;;;4917672;28;95326;-73
2022/05/05 00:34:26;;;;;;;66.15;52.67;;;19.20;54.80;;;;;;4924761;28;96698;-73
2022/05/05 00:36:51;;;;;;;66.32;53.25;;;19.20;54.80;;;;;;4918974;28;95253;-73
2022/05/05 00:39:17;;;;;;;65.72;52.80;;;19.20;54.90;;;;;;4922907;28;95693;-73
2022/05/05 00:41:45;;;;;;;65.30;52.50;;;19.20;54.80;;;;;;4928272;28;97133;-73
2022/05/05 00:44:12;;;;;;;64.25;52.22;;;19.20;54.80;;;;;;4928876;28;95894;-73
2022/05/05 00:46:38;;;;;;;66.22;53.15;;;19.20;55.00;;;;;;4927030;28;98719;-73
2022/05/05 00:49:04;;;;;;;65.80;52.47;;;19.10;54.80;;;;;;4931214;28;97592;-73
2022/05/05 00:51:30;;;;;;;65.70;52.60;;;19.20;54.90;;;;;;4926332;28;94212;-73
2022/05/05 00:53:56;;;;;;;65.55;52.80;;;19.10;54.80;;;;;;4926458;28;95360;-73
2022/05/05 00:56:23;;;;;;;65.88;52.28;;;19.10;54.90;;;;;;4930986;28;97685;-73
2022/05/05 00:58:49;;;;;;;66.22;52.88;;;19.10;54.80;;;;;;4922385;28;99038;-73
2022/05/05 01:01:18;;;;;;;66.72;53.08;;;19.10;54.90;;;;;;4928099;28;95181;-73
2022/05/05 01:03:45;;;;;;;64.93;52.42;;;19.10;54.80;;;;;;4923550;28;98349;-73
2022/05/05 01:06:14;;;;;;;65.80;52.55;;;19.10;55.00;;;;;;4927969;28;95539;-73
2022/05/05 01:08:40;;;;;;;65.80;52.88;;;19.10;54.90;;;;;;4919011;28;95566;-73
2022/05/05 01:11:05;;;;;;;66.28;52.38;;;19.10;54.90;;;;;;4930060;28;95203;-73
2022/05/05 01:13:31;;;;;;;66.05;52.90;;;19.10;55.00;;;;;;4930875;28;95253;-73
2022/05/05 01:15:58;;;;;;;66.20;52.75;;;19.10;54.80;;;;;;4935205;28;94889;-73
2022/05/05 01:18:25;;;;;;;66.20;52.53;;;19.10;54.90;;;;;;4927639;28;97215;-73
2022/05/05 01:20:53;;;;;;;66.25;52.90;;;19.10;54.80;;;;;;4919264;28;94938;-73
2022/05/05 01:23:19;;;;;;;66.30;52.55;;;19.10;55.00;;;;;;4925105;28;96303;-73
2022/05/05 01:28:34;;;;;;;65.70;52.97;;;19.10;55.00;;;;;;4916137;28;97961;-73
2022/05/05 01:31:01;;;;;;;65.70;52.43;;;19.10;55.00;;;;;;4932820;28;94903;-73
2022/05/05 01:33:28;;;;;;;68.75;53.70;;;19.00;55.00;;;;;;4926073;28;96372;-73
2022/05/05 01:35:58;;;;;;;66.00;52.88;;;19.00;54.80;;;;;;4926334;28;96872;-73
2022/05/05 01:38:30;;;;;;;65.68;52.35;;;19.00;55.00;;;;;;4929496;28;98558;-73
2022/05/05 01:40:56;;;;;;;65.35;52.80;;;19.00;55.10;;;;;;4927898;28;94569;-73
2022/05/05 01:43:21;;;;;;;64.10;52.35;;;19.00;55.20;;;;;;4922945;28;96958;-73
2022/05/05 01:45:48;;;;;;;65.13;52.97;;;18.90;55.70;;;;;;4909952;28;97129;-73
2022/05/05 01:48:14;;;;;;;65.40;52.53;;;19.00;55.10;;;;;;4918407;28;96325;-73
2022/05/05 01:50:40;;;;;;;65.97;52.90;;;18.90;55.20;;;;;;4934426;28;95314;-74
2022/05/05 01:53:06;;;;;;;64.90;52.08;;;19.00;55.20;;;;;;4927968;28;95550;-73
2022/05/05 01:55:33;;;;;;;66.25;53.00;;;19.00;55.20;;;;;;4933278;28;95787;-73
2022/05/05 01:58:00;;;;;;;64.80;52.63;;;18.90;55.20;;;;;;4917031;28;98971;-73
2022/05/05 02:00:26;;;;;;;65.47;52.67;;;18.90;55.20;;;;;;4928876;28;98293;-73
2022/05/05 02:02:52;;;;;;;64.60;52.17;;;18.90;55.30;;;;;;4923070;28;97518;-73
2022/05/05 02:05:18;;;;;;;65.07;52.60;;;18.90;55.30;;;;;;4921797;28;96433;-73
2022/05/05 02:07:45;;;;;;;67.53;53.08;;;18.90;55.30;;;;;;4929552;28;95254;-73
2022/05/05 02:10:16;;;;;;;67.22;52.97;;;18.90;55.30;;;;;;4923856;28;97781;-73
2022/05/05 02:12:44;;;;;;;65.22;52.65;;;18.90;55.30;;;;;;4932478;28;98615;-73
2022/05/05 02:15:12;;;;;;;66.03;52.38;;;18.90;55.40;;;;;;4929848;28;96924;-73
2022/05/05 02:17:42;;;;;;;64.82;52.42;;;18.90;55.40;;;;;;4925820;28;95264;-73
2022/05/05 02:20:12;;;;;;;65.43;52.47;;;18.90;55.40;;;;;;4924600;28;95333;-73
2022/05/05 02:22:40;;;;;;;64.55;52.38;;;18.90;55.40;;;;;;4925519;28;96123;-73
2022/05/05 02:25:06;;;;;;;64.25;52.55;;;18.90;55.40;;;;;;4921753;28;96697;-73
2022/05/05 02:27:53;;;;;;;64.88;52.70;;;18.90;55.30;;;;;;4923051;28;95774;-73
2022/05/05 02:30:21;;;;;;;65.07;52.70;;;18.90;55.40;;;;;;4930723;28;94506;-73
2022/05/05 02:32:47;;;;;;;65.53;52.53;;;18.90;55.40;;;;;;4929574;28;99420;-73
2022/05/05 02:35:14;;;;;;;64.93;52.28;;;18.90;55.50;;;;;;4929045;28;94802;-72
2022/05/05 02:40:24;;;;;;;64.82;52.55;;;18.90;55.50;;;;;;4921167;28;96244;-73
2022/05/05 02:42:50;;;;;;;64.97;52.58;;;18.90;55.50;;;;;;4915941;28;96391;-72
2022/05/05 02:45:15;;;;;;;64.43;52.17;;;18.80;55.60;;;;;;4921477;28;97882;-73
2022/05/05 02:47:41;;;;;;;64.25;52.55;;;18.80;55.50;;;;;;4924978;28;97057;-73
2022/05/05 02:50:07;;;;;;;65.75;53.00;;;18.90;55.60;;;;;;4927291;28;95009;-73
2022/05/05 02:52:33;;;;;;;64.53;52.83;;;18.80;55.40;;;;;;4925571;28;96975;-73
2022/05/05 02:54:59;;;;;;;64.25;52.10;;;18.80;55.40;;;;;;4928106;28;96037;-73
2022/05/05 02:57:25;;;;;;;64.28;52.53;;;18.80;55.50;;;;;;4927344;28;95099;-73
2022/05/05 02:59:53;;;;;;;65.35;52.50;;;18.80;55.50;;;;;;4923560;28;96043;-73
2022/05/05 03:02:19;;;;;;;66.00;52.47;;;18.80;55.60;;;;;;4928930;28;96074;-73
2022/05/05 03:04:45;;;;;;;64.25;52.65;;;18.80;55.60;;;;;;4923246;28;95351;-73
2022/05/05 03:07:11;;;;;;;65.97;53.08;;;18.80;55.50;;;;;;4927277;28;96336;-73
2022/05/05 03:09:37;;;;;;;66.07;52.75;;;18.80;55.50;;;;;;4929208;28;95154;-73
2022/05/05 03:12:03;;;;;;;67.22;52.88;;;18.80;55.50;;;;;;4935563;28;95374;-73
2022/05/05 03:14:29;;;;;;;65.82;52.80;;;18.80;55.60;;;;;;4923478;28;96928;-73
2022/05/05 03:16:54;;;;;;;66.72;53.03;;;18.80;55.60;;;;;;4920664;28;96301;-73
2022/05/05 03:19:20;;;;;;;65.78;52.92;;;18.80;55.60;;;;;;4930274;28;94962;-73
2022/05/05 03:21:46;;;;;;;66.18;53.10;;;18.80;55.70;;;;;;4930074;28;97490;-73
2022/05/05 03:24:11;;;;;;;64.45;52.30;;;18.80;55.50;;;;;;4925630;28;97972;-73
2022/05/05 03:26:37;;;;;;;66.40;53.00;;;18.70;55.60;;;;;;4924800;28;96418;-73
2022/05/05 03:29:04;;;;;;;65.43;52.90;;;18.80;55.70;;;;;;4931812;28;95497;-73
2022/05/05 03:31:30;;;;;;;64.93;52.88;;;18.70;55.50;;;;;;4931031;28;97066;-73
2022/05/05 03:33:56;;;;;;;65.15;52.88;;;18.70;55.70;;;;;;4928893;28;95442;-73
2022/05/05 03:36:23;;;;;;;66.03;53.03;;;18.80;55.80;;;;;;4924699;28;96026;-73
2022/05/05 03:38:49;;;;;;;66.07;53.05;;;18.70;55.70;;;;;;4919954;28;96228;-73
2022/05/05 03:41:15;;;;;;;65.32;52.78;;;18.70;55.80;;;;;;4927045;28;95953;-73
2022/05/05 03:43:40;;;;;;;65.88;52.35;;;18.70;55.80;;;;;;4929064;28;100460;-72
2022/05/05 03:46:06;;;;;;;65.78;52.42;;;18.70;55.70;;;;;;4922375;28;95236;-72
2022/05/05 03:48:32;;;;;;;64.95;52.67;;;18.70;56.30;;;;;;4920588;28;95411;-72
2022/05/05 03:50:58;;;;;;;63.83;52.40;;;18.70;55.80;;;;;;4913088;28;98326;-73
2022/05/05 03:53:24;;;;;;;64.95;52.47;;;18.70;55.80;;;;;;4922473;28;98454;-71
2022/05/05 03:55:49;;;;;;;65.15;52.75;;;18.70;55.80;;;;;;4925669;28;95964;-72
2022/05/05 03:58:15;;;;;;;65.57;52.72;;;18.70;55.80;;;;;;4927444;28;97504;-72
2022/05/05 04:00:41;;;;;;;64.95;52.83;;;18.70;55.80;;;;;;4922473;28;96686;-72
2022/05/05 04:05:51;;;;;;;63.78;52.13;;;18.70;55.80;;;;;;4924065;28;95987;-72
2022/05/05 04:08:16;;;;;;;65.28;52.55;;;18.70;55.80;;;;;;4915542;28;94768;-72
2022/05/05 04:10:42;;;;;;;65.95;53.20;;;18.70;55.80;;;;;;4921971;28;95416;-72
2022/05/05 04:13:08;;;;;;;66.53;52.35;;;18.70;55.90;;;;;;4932266;28;95312;-72
2022/05/05 04:15:36;;;;;;;64.55;52.40;;;18.70;55.90;;;;;;4918700;28;97370;-72
2022/05/05 04:18:02;;;;;;;64.72;52.50;;;18.70;55.90;;;;;;4932148;28;95233;-72
2022/05/05 04:20:28;;;;;;;64.03;52.60;;;18.70;55.90;;;;;;4918649;28;96382;-72
2022/05/05 04:22:55;;;;;;;64.30;52.33;;;18.60;55.90;;;;;;4946870;28;95246;-72
2022/05/05 04:25:21;;;;;;;64.63;52.58;;;18.70;56.00;;;;;;4923585;28;97065;-72
2022/05/05 04:27:47;;;;;;;66.07;52.70;;;18.60;55.90;;;;;;4923522;28;97245;-72
2022/05/05 04:30:16;;;;;;;65.40;52.25;;;18.70;56.00;;;;;;4926879;28;98167;-72
2022/05/05 04:32:42;;;;;;;65.18;52.58;;;18.60;56.00;;;;;;4922271;28;100452;-73
2022/05/05 04:35:08;;;;;;;67.05;52.63;;;18.60;55.90;;;;;;4922437;28;104735;-72
2022/05/05 04:37:34;;;;;;;65.30;52.67;;;18.60;55.90;;;;;;4928465;28;95340;-69
2022/05/05 04:39:59;;;;;;;66.57;52.45;;;18.60;56.00;;;;;;4917737;28;99105;-72
2022/05/05 04:42:28;;;;;;;65.32;52.45;;;18.60;56.10;;;;;;4927217;28;96333;-72
2022/05/05 04:44:53;;;;;;;67.15;53.25;;;18.60;56.00;;;;;;4918311;28;97525;-72
2022/05/05 04:47:19;;;;;;;70.20;53.08;;;18.60;56.20;;;;;;4903988;28;101501;-73
2022/05/05 04:49:45;;;;;;;66.80;52.50;;;18.60;56.50;;;;;;4910415;28;98008;-72
2022/05/05 04:52:11;;;;;;;70.30;54.53;;;18.60;56.70;;;;;;4916821;28;100269;-73
2022/05/05 04:54:36;;;;;;;69.63;55.33;;;18.60;57.00;;;;;;4926181;28;94596;-72
2022/05/05 04:57:02;;;;;;;71.38;55.72;;;18.60;57.40;;;;;;4921162;28;95192;-69
2022/05/05 04:59:29;;;;;;;68.93;55.33;;;18.60;57.60;;;;;;4923386;28;95524;-71
2022/05/05 05:01:54;;;;;;;70.80;54.72;;;18.60;57.60;;;;;;4917554;28;95782;-70
2022/05/05 05:04:20;;;;;;;68.70;54.53;;;18.60;57.60;;;;;;4922845;28;95966;-69
2022/05/05 05:06:45;;;;;;;69.30;54.10;;;18.60;57.90;;;;;;4915888;28;95666;-68
2022/05/05 05:09:11;;;;;;;69.32;54.50;;;18.60;58.50;;;;;;4915119;28;98283;-69
2022/05/05 05:11:37;;;;;;;71.43;53.38;;;18.60;58.60;;;;;;4922880;28;95231;-69
2022/05/05 05:14:02;;;;;;;72.15;53.97;;;18.60;59.10;;;;;;4925993;28;95718;-70
2022/05/05 05:16:28;;;;;;;73.20;55.35;;;18.50;59.00;;;;;;4919210;28;95872;-70
2022/05/05 05:18:54;;;;;;;73.13;54.45;;;18.50;58.80;;;;;;4915656;28;96448;-71
2022/05/05 05:21:20;;;;;;;79.07;55.03;;;18.60;58.70;;;;;;4910013;28;97933;-68
2022/05/05 05:23:46;;;;;;;75.88;54.55;;;18.50;58.80;;;;;;4921588;28;98104;-68
2022/05/05 05:26:13;;;;;;;75.07;54.80;;;18.50;58.80;;;;;;4931912;28;94923;-69
2022/05/05 05:28:40;;;;;;;79.28;55.13;;;18.60;58.70;;;;;;4926379;28;96259;-71
2022/05/05 05:31:05;;;;;;;75.43;55.03;;;18.60;58.60;;;;;;4926971;28;97701;-70
2022/05/05 05:33:31;;;;;;;78.18;55.03;;;18.50;58.50;;;;;;4928479;28;95696;-70
2022/05/05 05:35:58;;;;;;;78.10;54.22;;;18.50;58.40;;;;;;4928601;28;95236;-71
2022/05/05 05:38:23;;;;;;;74.07;54.88;;;18.50;58.30;;;;;;4933711;28;96533;-70
2022/05/05 05:40:49;;;;;;;71.63;53.75;;;18.50;58.30;;;;;;4915731;28;98055;-70
2022/05/05 05:43:15;;;;;;;69.38;54.92;;;18.50;58.30;;;;;;4930957;28;95711;-70
2022/05/05 05:45:41;;;;;;;72.35;54.63;;;18.50;58.00;;;;;;4932912;28;96432;-70
2022/05/05 05:48:07;;;;;;;70.20;53.53;;;18.50;58.20;;;;;;4926449;28;97195;-70
2022/05/05 05:50:33;;;;;;;75.50;53.65;;;18.50;58.20;;;;;;4932669;28;95087;-70
2022/05/05 05:52:59;;;;;;;69.45;53.78;;;18.50;57.90;;;;;;4930234;28;95964;-70
2022/05/05 05:55:25;;;;;;;67.90;53.83;;;18.50;57.80;;;;;;4921722;28;95249;-70
2022/05/05 05:57:51;;;;;;;73.68;54.13;;;18.50;57.90;;;;;;4924804;28;97051;-70
2022/05/05 06:00:17;;;;;;;65.68;53.28;;;18.50;58.40;;;;;;4925911;28;95134;-70
2022/05/05 06:05:27;;;;;;;69.47;54.20;;;18.50;57.50;;;;;;4927764;28;96399;-70
2022/05/05 06:08:00;;;;;;;73.78;54.53;;;18.50;57.60;;;;;;4916079;28;98428;-70
2022/05/05 06:10:27;;;;;;;68.22;53.58;;;18.60;57.60;;;;;;4919936;28;96827;-70
2022/05/05 06:12:53;;;;;;;72.63;53.55;;;18.50;57.50;;;;;;4921166;28;94888;-72
2022/05/05 06:15:19;;;;;;;73.90;53.25;;;18.60;57.80;;;;;;4926921;28;97512;-70
2022/05/05 06:17:45;;;;;;;70.60;54.42;;;18.60;58.10;;;;;;4928397;28;98409;-73
2022/05/05 06:20:11;;;;;;;70.65;54.85;;;18.70;58.00;;;;;;4930840;28;99379;-72
2022/05/05 06:22:40;;;;;;;72.63;55.10;;;18.80;58.10;;;;;;4928336;28;95117;-72
2022/05/05 06:25:06;;;;;;;70.00;54.72;;;18.80;58.00;;;;;;4926662;28;97968;-72
2022/05/05 06:27:32;;;;;;;72.97;55.15;;;18.80;57.60;;;;;;4928572;28;95144;-72
2022/05/05 06:29:59;;;;;;;70.75;55.08;;;18.90;57.40;;;;;;4930595;28;94709;-73
2022/05/05 06:32:25;;;;;;;72.93;55.55;;;18.90;57.50;;;;;;4925950;28;95039;-71
2022/05/05 06:34:50;;;;;;;71.28;54.47;;;18.90;57.20;;;;;;4908173;28;94864;-72
2022/05/05 06:37:16;;;;;;;73.90;54.40;;;18.90;57.20;;;;;;4918719;28;95497;-71
2022/05/05 06:39:41;;;;;;;73.20;54.25;;;19.00;57.60;;;;;;4915308;28;97403;-76
2022/05/05 06:42:08;;;;;;;73.60;55.50;;;19.00;57.70;;;;;;4908263;28;100442;-76
2022/05/05 06:44:33;;;;;;;75.57;55.63;;;19.10;57.90;;;;;;4931970;28;95475;-76
2022/05/05 06:46:59;;;;;;;74.85;56.33;;;19.20;57.90;;;;;;4925982;28;96187;-76
2022/05/05 06:49:25;;;;;;;78.75;57.33;;;19.20;58.50;;;;;;4908896;28;96434;-76
2022/05/05 06:51:51;;;;;;;75.07;57.20;;;19.20;57.50;;;;;;4914755;28;95652;-75
2022/05/05 06:54:16;;;;;;;76.22;57.75;;;19.30;58.00;;;;;;4925767;28;95555;-78
2022/05/05 06:56:42;;;;;;;74.70;57.78;;;19.30;57.40;;;;;;4933480;28;96268;-77
2022/05/05 06:59:08;;;;;;;77.15;57.55;;;19.40;57.20;;;;;;4914423;28;95160;-75
2022/05/05 07:01:51;;;;;;;79.68;58.08;;;19.50;57.20;;;;;;4914969;28;100667;-76
2022/05/05 07:07:02;;;;;;;79.05;58.50;;;19.60;56.90;;;;;;4908979;28;98338;-74
2022/05/05 07:12:13;;;;;;;77.85;59.42;;;19.70;56.90;;;;;;4919018;28;95993;-74
2022/05/05 07:14:38;;;;;;;78.32;59.60;;;19.70;56.80;;;;;;4917184;28;95283;-75
2022/05/05 07:17:04;;;;;;;78.68;59.75;;;19.70;56.90;;;;;;4920890;28;97291;-74
2022/05/05 07:19:30;;;;;;;79.18;59.03;;;19.80;57.30;;;;;;4920785;28;99829;-73
2022/05/05 07:21:56;;;;;;;81.18;59.05;;;19.80;56.40;;;;;;4924431;28;94793;-75
2022/05/05 07:24:22;;;;;;;80.25;58.75;;;19.80;56.50;;;;;;4916510;28;96061;-78
2022/05/05 07:26:48;;;;;;;82.05;59.00;;;19.90;56.50;;;;;;4921683;28;97347;-74
2022/05/05 07:29:15;;;;;;;76.50;59.08;;;19.90;57.40;;;;;;4915603;28;98055;-75
2022/05/05 07:31:41;;;;;;;77.53;59.20;;;19.90;56.90;;;;;;4911146;28;99934;-75
2022/05/05 07:34:07;;;;;;;78.55;58.60;;;19.90;57.30;;;;;;4911983;28;100089;-75
2022/05/05 07:36:33;;;;;;;76.57;58.83;;;19.90;56.30;;;;;;4911473;28;96036;-74
2022/05/05 07:38:58;;;;;;;83.28;60.38;;;19.90;56.90;;;;;;4923190;28;96513;-74
2022/05/05 07:41:24;;;;;;;83.03;60.63;;;20.00;57.30;;;;;;4912804;28;97616;-74
2022/05/05 07:43:53;;;;;;;80.40;60.97;;;20.00;58.00;;;;;;4912584;28;97123;-74
2022/05/05 07:46:18;;;;;;;81.38;61.70;;;20.00;58.40;;;;;;4923110;28;95555;-73
2022/05/05 07:48:44;;;;;;;85.60;62.67;;;20.00;58.30;;;;;;4910636;28;97875;-74
2022/05/05 07:51:11;;;;;;;80.63;61.95;;;20.00;57.80;;;;;;4921508;28;96607;-74
2022/05/05 07:53:36;;;;;;;84.28;62.90;;;20.00;57.90;;;;;;4915896;28;96203;-74
2022/05/05 07:56:02;;;;;;;81.55;62.35;;;20.00;57.90;;;;;;4913199;28;99479;-74
2022/05/05 07:58:28;;;;;;;80.95;62.30;;;20.10;58.70;;;;;;4919690;28;100290;-74
2022/05/05 08:00:54;;;;;;;89.97;63.10;;;20.10;57.50;;;;;;4919054;28;95384;-77
2022/05/05 08:03:20;;;;;;;80.55;62.55;;;20.20;57.20;;;;;;4901545;28;97801;-75
2022/05/05 08:05:45;;;;;;;82.43;62.60;;;20.20;56.70;;;;;;4905311;28;97777;-75
2022/05/05 08:08:11;;;;;;;82.80;62.03;;;20.20;56.80;;;;;;4913630;28;98265;-74
2022/05/05 08:10:36;;;;;;;82.03;61.45;;;20.10;57.00;;;;;;4907324;28;96562;-74
2022/05/05 08:13:05;;;;;;;84.22;62.28;;;20.20;57.20;;;;;;4918459;28;99058;-74
2022/05/05 08:15:31;;;;;;;83.43;61.67;;;20.20;57.10;;;;;;4912357;28;97783;-74
2022/05/05 08:17:57;;;;;;;91.10;62.53;;;20.20;56.80;;;;;;4914420;28;98169;-74
2022/05/05 08:20:22;;;;;;;83.82;61.95;;;20.30;56.20;;;;;;4902943;28;97179;-73
2022/05/05 08:22:48;;;;;;;82.40;62.45;;;20.30;56.30;;;;;;4919025;28;97006;-73
2022/05/05 08:30:43;;;;;;;81.68;62.13;;;20.30;57.40;;;;;;4918540;28;98176;-73
2022/05/05 08:33:09;;;;;;;84.75;61.10;;;20.40;56.60;;;;;;4908339;28;100460;-73
2022/05/05 08:35:35;;;;;;;82.97;61.83;;;20.30;56.20;;;;;;4914023;28;96209;-75
2022/05/05 08:38:00;;;;;;;81.85;62.17;;;20.30;56.70;;;;;;4909452;28;95583;-74
2022/05/05 08:40:27;;;;;;;81.22;62.15;;;20.40;56.50;;;;;;4906035;28;97347;-75
2022/05/05 08:42:53;;;;;;;83.50;62.05;;;20.40;56.60;;;;;;4915516;28;95788;-75
2022/05/05 08:45:20;;;;;;;81.30;62.45;;;20.40;56.30;;;;;;4914366;28;96149;-73
2022/05/05 08:47:47;;;;;;;80.60;62.05;;;20.40;56.40;;;;;;4909380;28;96277;-73
2022/05/05 08:50:14;;;;;;;84.50;62.28;;;20.40;56.20;;;;;;4910332;28;95236;-74
2022/05/05 08:52:48;;;;;;;80.85;62.60;;;20.40;56.50;;;;;;4906289;28;97944;-72
2022/05/05 08:55:16;;;;;;;86.82;62.53;;;20.40;56.00;;;;;;4906472;28;96128;-72
2022/05/05 08:57:42;;;;;;;79.50;61.00;;;20.40;55.70;;;;;;4906596;28;94926;-73
2022/05/05 09:00:10;;;;;;;80.13;61.25;;;20.50;56.20;;;;;;4908741;28;96300;-73
2022/05/05 09:02:36;;;;;;;80.85;62.20;;;20.50;55.90;;;;;;4918603;28;94950;-74
2022/05/05 09:05:03;;;;;;;78.97;61.17;;;20.60;55.90;;;;;;4916631;28;96443;-74
2022/05/05 09:07:50;;;;;;;82.30;61.60;;;20.50;55.80;;;;;;4911091;28;96740;-71
2022/05/05 09:10:17;;;;;;;82.40;61.80;;;20.60;56.30;;;;;;4911523;28;96737;-73
2022/05/05 09:13:00;;;;;;;84.78;61.08;;;20.60;55.90;;;;;;4915908;28;99158;-74
2022/05/05 09:15:30;;;;;;;79.68;60.35;;;20.60;56.50;;;;;;4918810;28;94849;-74
2022/05/05 09:18:16;;;;;;;79.35;60.80;;;20.70;55.70;;;;;;4925221;28;98045;-73
2022/05/05 09:20:43;;;;;;;79.65;60.42;;;20.70;55.30;;;;;;4917239;28;97951;-73
2022/05/05 09:23:09;;;;;;;82.53;61.00;;;20.70;55.40;;;;;;4914203;28;95949;-74
2022/05/05 09:25:44;;;;;;;76.43;60.72;;;20.70;55.40;;;;;;4916894;28;97256;-74
2022/05/05 09:28:21;;;;;;;77.30;60.15;;;20.70;55.50;;;;;;4905114;28;96429;-74
2022/05/05 09:30:52;;;;;;;79.38;60.13;;;20.70;55.50;;;;;;4899882;28;96886;-72
2022/05/05 09:33:38;;;;;;;79.55;59.85;;;20.70;56.00;;;;;;4919772;28;100745;-73
2022/05/05 09:36:05;;;;;;;78.47;59.75;;;20.80;55.20;;;;;;4923309;28;96880;-73
2022/05/05 09:38:56;;;;;;;80.90;59.47;;;20.80;54.90;;;;;;4913370;28;96014;-74
2022/05/05 09:41:24;;;;;;;76.40;59.42;;;20.80;55.10;;;;;;4901733;28;98857;-74
2022/05/05 09:43:53;;;;;;;80.57;59.22;;;20.90;54.90;;;;;;4916204;28;94774;-73
2022/05/05 09:46:21;;;;;;;79.85;58.67;;;20.90;55.50;;;;;;4910249;28;95463;-73
2022/05/05 09:48:47;;;;;;;77.85;58.55;;;20.90;54.80;;;;;;4906209;28;95507;-73
2022/05/05 09:51:16;;;;;;;76.80;59.05;;;20.90;54.90;;;;;;4906778;28;95630;-72
2022/05/05 09:59:29;;;;;;;83.13;60.78;;;20.90;55.60;;;;;;4904723;28;100560;-72
2022/05/05 10:02:04;;;;;;;102.72;63.80;;;21.00;55.50;;;;;;4914962;28;98707;-73
2022/05/05 10:04:33;;;;;;;102.07;63.28;;;21.10;55.60;;;;;;4918116;28;96812;-74
2022/05/05 10:07:02;;;;;;;96.82;61.88;;;21.20;55.10;;;;;;4915656;28;98392;-74
2022/05/05 10:09:29;;;;;;;94.20;62.47;;;21.30;54.90;;;;;;4913879;28;97046;-73
2022/05/05 10:11:55;;;;;;;84.10;61.78;;;21.50;54.40;;;;;;4914530;28;97072;-72
2022/05/05 10:14:21;;;;;;;85.25;60.95;;;21.60;53.90;;;;;;4907391;28;95510;-73
2022/05/05 10:16:48;;;;;;;84.38;61.05;;;21.80;53.80;;;;;;4910109;28;95969;-73
2022/05/05 10:19:15;;;;;;;87.10;61.70;;;21.90;53.50;;;;;;4923428;28;97611;-72
2022/05/05 10:22:05;;;;;;;94.65;61.20;;;22.10;53.10;;;;;;4913051;28;96049;-73
2022/05/05 10:24:50;;;;;;;87.07;61.27;;;22.20;53.10;;;;;;4907545;28;95862;-73
2022/05/05 10:27:16;;;;;;;83.45;61.25;;;22.30;52.50;;;;;;4909399;28;98663;-73
2022/05/05 10:29:44;;;;;;;85.53;61.63;;;22.40;52.40;;;;;;4914933;28;100795;-72
2022/05/05 10:32:25;;;;;;;89.63;60.25;;;22.50;51.90;;;;;;4898251;28;96001;-73
2022/05/05 10:35:12;;;;;;;83.80;61.08;;;22.60;51.80;;;;;;4899446;28;96271;-73
2022/05/05 10:37:39;;;;;;;86.38;60.47;;;22.70;51.70;;;;;;4910810;28;99014;-73
2022/05/05 10:40:10;;;;;;;84.10;60.53;;;22.80;51.60;;;;;;4896223;28;98366;-72
2022/05/05 10:42:39;;;;;;;84.40;60.60;;;22.80;52.10;;;;;;4914164;28;96323;-72
2022/05/05 10:45:15;;;;;;;88.50;59.38;;;22.90;51.10;;;;;;4903650;28;101303;-72
2022/05/05 10:48:04;;;;;;;85.95;59.65;;;23.10;51.00;;;;;;4908848;28;95654;-72
2022/05/05 10:50:34;;;;;;;83.60;59.83;;;23.10;50.70;;;;;;4893590;28;96988;-73
2022/05/05 10:53:01;;;;;;;81.38;60.63;;;23.20;50.50;;;;;;4903700;28;96131;-73
2022/05/05 10:55:48;;;;;;;83.57;59.80;;;23.30;50.70;;;;;;4911175;28;95307;-72
2022/05/05 10:58:52;;;;;;;82.00;59.08;;;23.30;51.50;;;;;;4915017;28;100131;-72
2022/05/05 11:01:17;;;;;;;82.18;60.65;;;23.30;51.30;;;;;;4912758;28;97467;-72
2022/05/05 11:04:05;;;;;;;83.35;60.45;;;23.20;50.80;;;;;;4914279;28;96375;-72
2022/05/05 11:06:32;;;;;;;80.35;58.95;;;23.20;51.00;;;;;;4914530;28;97794;-73
2022/05/05 11:08:58;;;;;;;82.20;60.25;;;23.20;52.30;;;;;;4907559;28;97120;-71
2022/05/05 11:11:42;;;;;;;84.13;60.03;;;23.20;50.90;;;;;;4910658;28;96764;-72
2022/05/05 11:23:07;;;;;;;84.35;60.10;;;23.20;50.50;;;;;;4892722;28;96132;-71
2022/05/05 11:25:33;;;;;;;82.32;60.20;;;23.30;50.40;;;;;;4894858;28;95950;-71
2022/05/05 11:27:59;;;;;;;81.90;59.75;;;23.30;50.40;;;;;;4890589;28;96598;-71
2022/05/05 11:30:25;;;;;;;81.85;59.38;;;23.30;50.30;;;;;;4905334;28;98635;-70
2022/05/05 11:32:50;;;;;;;79.25;59.22;;;23.20;50.00;;;;;;4932931;28;95960;-73
2022/05/05 11:35:23;;;;;;;82.63;58.72;;;23.20;50.20;;;;;;4924390;28;97057;-72
2022/05/05 11:37:49;;;;;;;80.35;58.85;;;23.30;50.10;;;;;;4922421;28;94535;-73
2022/05/05 11:40:14;;;;;;;81.03;59.38;;;23.30;50.00;;;;;;4905769;28;97411;-71
2022/05/05 11:45:29;;;;;;;80.30;59.60;;;23.30;50.50;;;;;;4878161;28;98178;-72
2022/05/05 11:47:55;;;;;;;81.38;58.83;;;23.30;50.20;;;;;;4872334;28;97986;-74
2022/05/05 11:50:21;;;;;;;79.85;58.25;;;23.30;50.50;;;;;;4890318;28;97873;-72
2022/05/05 11:52:47;;;;;;;80.35;58.85;;;23.40;51.00;;;;;;4910171;28;96355;-74
2022/05/05 11:55:15;;;;;;;79.40;58.85;;;23.30;50.20;;;;;;4908403;28;97056;-73
2022/05/05 11:57:40;;;;;;;79.53;58.33;;;23.30;50.20;;;;;;4909154;28;95555;-72
2022/05/05 12:02:56;;;;;;;76.90;57.72;;;23.40;50.50;;;;;;4915103;28;97472;-73
2022/05/05 12:05:24;;;;;;;76.10;58.03;;;23.40;49.90;;;;;;4918350;28;98420;-73
2022/05/05 12:07:51;;;;;;;81.03;59.03;;;23.30;50.00;;;;;;4924110;28;96435;-73
2022/05/05 12:10:18;;;;;;;80.68;58.50;;;23.30;50.40;;;;;;4908181;28;97490;-72
2022/05/05 12:12:49;;;;;;;81.10;58.90;;;23.30;51.10;;;;;;4914123;28;97153;-73
2022/05/05 12:15:16;;;;;;;78.15;58.20;;;23.30;50.30;;;;;;4922686;28;95150;-73
2022/05/05 12:17:49;;;;;;;77.55;57.83;;;23.30;50.40;;;;;;4926202;28;95297;-73
2022/05/05 12:20:16;;;;;;;76.07;57.90;;;23.30;50.60;;;;;;4914890;28;97951;-73
2022/05/05 12:22:43;;;;;;;76.40;57.22;;;23.30;50.10;;;;;;4921039;28;98462;-75
2022/05/05 12:25:14;;;;;;;78.30;57.92;;;23.30;50.70;;;;;;4916087;28;97947;-74
2022/05/05 12:27:41;;;;;;;78.97;57.83;;;23.30;50.10;;;;;;4920951;28;97567;-75
2022/05/05 12:30:08;;;;;;;75.85;57.00;;;23.30;50.00;;;;;;4914911;28;101675;-74
2022/05/05 12:32:34;;;;;;;75.90;57.38;;;23.30;50.10;;;;;;4923199;28;94967;-75
2022/05/05 12:35:10;;;;;;;77.82;57.45;;;23.20;50.20;;;;;;4916057;28;97055;-74
2022/05/05 12:37:37;;;;;;;75.35;56.53;;;23.20;50.50;;;;;;4914981;28;95329;-73
2022/05/05 12:40:07;;;;;;;76.50;57.70;;;23.10;50.50;;;;;;4905421;28;95850;-74
2022/05/05 12:42:39;;;;;;;77.70;57.23;;;23.20;50.50;;;;;;4914221;28;95309;-74
2022/05/05 12:45:15;;;;;;;74.93;56.00;;;23.20;50.30;;;;;;4922038;28;94958;-74
2022/05/05 12:47:43;;;;;;;77.05;56.70;;;23.10;50.50;;;;;;4900615;28;98297;-73
2022/05/05 12:50:25;;;;;;;74.88;56.47;;;23.10;50.40;;;;;;4901619;28;95757;-74
2022/05/05 13:01:03;;;;;;;77.82;56.70;;;23.10;51.10;;;;;;4916431;28;97378;-74
2022/05/05 13:03:30;;;;;;;77.88;57.85;;;23.10;50.80;;;;;;4910959;28;96319;-75
2022/05/05 13:05:56;;;;;;;76.30;56.03;;;23.10;50.60;;;;;;4916400;28;95279;-75
2022/05/05 13:08:21;;;;;;;77.80;57.10;;;23.10;50.50;;;;;;4917225;28;99462;-74
2022/05/05 13:10:47;;;;;;;75.82;57.08;;;23.10;50.80;;;;;;4914716;28;96600;-72
2022/05/05 13:13:14;;;;;;;73.93;56.20;;;23.10;50.70;;;;;;4910392;28;94807;-72
2022/05/05 13:15:40;;;;;;;75.35;56.42;;;23.10;50.40;;;;;;4923573;28;95389;-74
2022/05/05 13:18:05;;;;;;;74.38;56.75;;;23.00;50.60;;;;;;4929945;28;94752;-74
2022/05/05 13:20:32;;;;;;;75.50;56.92;;;23.00;50.80;;;;;;4921208;28;95608;-74